createdAt,value
2022-08-04T00:00:06.118Z,361.1020
2022-08-04T00:00:17.183Z,362.6990
2022-08-04T00:00:28.251Z,360.7050
2022-08-04T00:00:40.315Z,360.3090
2022-08-04T00:00:51.378Z,363.5030
2022-08-04T00:01:02.535Z,363.9060
2022-08-04T00:01:13.631Z,363.1000
2022-08-04T00:01:24.693Z,362.6990
2022-08-04T00:01:35.750Z,365.9350
2022-08-04T00:01:48.302Z,363.5030
2022-08-04T00:01:59.436Z,361.8990
2022-08-04T00:02:10.608Z,362.2990
2022-08-04T00:02:21.682Z,363.5030
2022-08-04T00:02:32.749Z,365.5270
2022-08-04T00:02:43.831Z,363.1000
2022-08-04T00:02:55.977Z,362.6990
2022-08-04T00:03:07.054Z,362.2990
2022-08-04T00:03:18.125Z,365.5270
2022-08-04T00:03:29.174Z,364.7150
2022-08-04T00:03:40.368Z,365.9350
2022-08-04T00:03:51.417Z,365.5270
2022-08-04T00:04:06.546Z,358.3420
2022-08-04T00:04:17.626Z,357.9510
2022-08-04T00:04:28.707Z,361.5000
2022-08-04T00:04:39.919Z,363.9060
2022-08-04T00:04:50.969Z,364.3100
2022-08-04T00:05:02.053Z,363.5030
2022-08-04T00:05:16.599Z,359.1260
2022-08-04T00:05:27.662Z,357.9510
2022-08-04T00:05:38.737Z,360.7050
2022-08-04T00:05:49.810Z,359.5200
2022-08-04T00:06:00.860Z,361.5000
2022-08-04T00:06:12.208Z,363.9060
2022-08-04T00:06:24.452Z,361.5000
2022-08-04T00:06:35.529Z,362.6990
2022-08-04T00:06:46.586Z,363.5030
2022-08-04T00:06:57.656Z,362.6990
2022-08-04T00:07:08.723Z,363.5030
2022-08-04T00:07:19.991Z,363.1000
2022-08-04T00:07:44.143Z,356.3960
2022-08-04T00:07:53.728Z,344.0630
2022-08-04T00:08:04.787Z,350.3080
2022-08-04T00:08:16.001Z,351.4330
2022-08-04T00:08:27.081Z,354.8540
2022-08-04T00:08:38.130Z,353.7060
2022-08-04T00:08:49.219Z,357.1720
2022-08-04T00:09:00.305Z,357.1720
2022-08-04T00:09:11.372Z,357.9510
2022-08-04T00:09:22.447Z,358.3420
2022-08-04T00:09:33.526Z,360.7050
2022-08-04T00:09:44.725Z,362.2990
2022-08-04T00:09:55.779Z,357.9510
2022-08-04T00:10:06.831Z,360.3090
2022-08-04T00:10:18.032Z,362.2990
2022-08-04T00:10:29.111Z,363.5030
2022-08-04T00:10:40.180Z,363.5030
2022-08-04T00:10:51.266Z,362.2990
2022-08-04T00:11:02.339Z,362.2990
2022-08-04T00:11:15.587Z,364.3100
2022-08-04T00:11:26.828Z,356.7830
2022-08-04T00:11:37.890Z,359.9140
2022-08-04T00:11:49.110Z,362.2990
2022-08-04T00:12:00.147Z,362.6990
2022-08-04T00:12:11.217Z,363.5030
2022-08-04T00:12:22.270Z,362.6990
2022-08-04T00:12:39.776Z,353.3250
2022-08-04T00:12:51.185Z,354.0880
2022-08-04T00:13:02.272Z,355.2380
2022-08-04T00:13:13.342Z,356.7830
2022-08-04T00:13:24.383Z,356.7830
2022-08-04T00:13:35.445Z,357.1720
2022-08-04T00:13:58.077Z,359.5200
2022-08-04T00:14:03.869Z,352.5660
2022-08-04T00:14:15.263Z,350.3080
2022-08-04T00:14:26.324Z,353.3250
2022-08-04T00:14:37.392Z,354.0880
2022-08-04T00:14:48.456Z,356.3960
2022-08-04T00:14:59.523Z,357.9510
2022-08-04T00:15:10.579Z,356.0090
2022-08-04T00:15:25.970Z,349.1890
2022-08-04T00:15:37.032Z,352.1880
2022-08-04T00:15:48.102Z,354.8540
2022-08-04T00:15:59.180Z,354.0880
2022-08-04T00:16:10.271Z,357.9510
2022-08-04T00:16:21.357Z,358.7340
2022-08-04T00:16:34.821Z,358.7340
2022-08-04T00:16:49.346Z,348.4480
2022-08-04T00:17:00.391Z,351.8100
2022-08-04T00:17:11.782Z,352.5660
2022-08-04T00:17:23.032Z,355.2380
2022-08-04T00:17:34.263Z,354.8540
2022-08-04T00:17:45.310Z,354.8540
2022-08-04T00:17:56.741Z,355.6230
2022-08-04T00:18:07.864Z,359.1260
2022-08-04T00:18:18.914Z,357.5610
2022-08-04T00:18:29.977Z,357.9510
2022-08-04T00:18:41.050Z,356.3960
2022-08-04T00:18:52.121Z,359.5200
2022-08-04T00:19:03.202Z,358.7340
2022-08-04T00:19:14.399Z,361.8990
2022-08-04T00:19:25.595Z,359.5200
2022-08-04T00:19:36.646Z,361.1020
2022-08-04T00:19:47.705Z,361.1020
2022-08-04T00:19:58.791Z,360.7050
2022-08-04T00:20:09.839Z,358.7340
2022-08-04T00:20:20.910Z,362.2990
2022-08-04T00:20:31.970Z,360.7050
2022-08-04T00:20:43.015Z,360.3090
2022-08-04T00:20:54.079Z,364.3100
2022-08-04T00:21:05.155Z,363.1000
2022-08-04T00:21:16.330Z,363.5030
2022-08-04T00:21:27.518Z,361.5000
2022-08-04T00:21:38.581Z,363.5030
2022-08-04T00:21:49.623Z,361.1020
2022-08-04T00:22:00.685Z,363.9060
2022-08-04T00:22:11.761Z,364.3100
2022-08-04T00:22:22.827Z,362.6990
2022-08-04T00:22:33.871Z,363.1000
2022-08-04T00:22:44.944Z,363.9060
2022-08-04T00:22:56.024Z,364.3100
2022-08-04T00:23:07.097Z,362.2990
2022-08-04T00:23:18.399Z,364.3100
2022-08-04T00:24:10.791Z,362.6990
2022-08-04T00:24:11.466Z,352.5660
2022-08-04T00:24:12.280Z,342.9840
2022-08-04T00:24:20.358Z,337.3420
2022-08-04T00:24:31.429Z,341.5560
2022-08-04T00:24:42.509Z,346.9740
2022-08-04T00:24:53.559Z,346.9740
2022-08-04T00:25:04.643Z,350.3080
2022-08-04T00:25:15.851Z,352.5660
2022-08-04T00:25:28.159Z,349.9340
2022-08-04T00:25:39.201Z,354.0880
2022-08-04T00:25:50.377Z,355.6230
2022-08-04T00:26:01.447Z,352.5660
2022-08-04T00:26:12.505Z,355.2380
2022-08-04T00:26:23.581Z,356.0090
2022-08-04T00:26:37.489Z,351.4330
2022-08-04T00:26:48.839Z,353.3250
2022-08-04T00:26:59.878Z,354.4710
2022-08-04T00:27:10.948Z,353.3250
2022-08-04T00:27:22.452Z,354.0880
2022-08-04T00:27:36.283Z,354.0880
2022-08-04T00:27:47.528Z,349.5610
2022-08-04T00:27:58.590Z,349.9340
2022-08-04T00:28:09.648Z,356.0090
2022-08-04T00:28:20.899Z,356.0090
2022-08-04T00:28:31.972Z,356.3960
2022-08-04T00:28:43.038Z,356.3960
2022-08-04T00:28:54.078Z,355.6230
2022-08-04T00:29:05.160Z,356.7830
2022-08-04T00:29:16.239Z,357.9510
2022-08-04T00:29:27.280Z,358.7340
2022-08-04T00:29:38.361Z,358.7340
2022-08-04T00:29:49.413Z,356.0090
2022-08-04T00:30:04.091Z,352.1880
2022-08-04T00:30:15.157Z,354.0880
2022-08-04T00:30:26.195Z,356.0090
2022-08-04T00:30:37.264Z,353.3250
2022-08-04T00:30:48.332Z,356.0090
2022-08-04T00:30:59.424Z,356.0090
2022-08-04T00:31:11.020Z,357.5610
2022-08-04T00:31:53.669Z,354.0880
2022-08-04T00:31:54.923Z,346.9740
2022-08-04T00:31:57.927Z,337.3420
2022-08-04T00:32:09.408Z,338.7350
2022-08-04T00:32:34.317Z,343.3430
2022-08-04T00:32:37.430Z,334.9320
2022-08-04T00:32:48.502Z,338.0370
2022-08-04T00:32:59.578Z,341.9120
2022-08-04T00:33:10.639Z,344.4240
2022-08-04T00:33:21.728Z,346.9740
2022-08-04T00:33:32.799Z,346.6070
2022-08-04T00:33:43.851Z,348.0780
2022-08-04T00:33:55.037Z,349.5610
2022-08-04T00:34:06.103Z,349.5610
2022-08-04T00:34:17.178Z,350.3080
2022-08-04T00:34:28.240Z,348.0780
2022-08-04T00:34:39.320Z,351.4330
2022-08-04T00:34:50.387Z,351.8100
2022-08-04T00:35:03.834Z,348.0780
2022-08-04T00:35:15.126Z,350.6820
2022-08-04T00:35:26.345Z,349.9340
2022-08-04T00:35:37.410Z,350.3080
2022-08-04T00:35:48.450Z,354.4710
2022-08-04T00:35:59.648Z,353.3250
2022-08-04T00:36:10.711Z,352.1880
2022-08-04T00:36:21.785Z,353.3250
2022-08-04T00:36:32.862Z,354.0880
2022-08-04T00:36:43.923Z,352.9450
2022-08-04T00:36:54.963Z,354.8540
2022-08-04T00:37:06.030Z,355.2380
2022-08-04T00:37:17.501Z,354.4710
2022-08-04T00:37:28.580Z,355.6230
2022-08-04T00:37:39.641Z,352.9450
2022-08-04T00:37:50.720Z,353.7060
2022-08-04T00:38:01.788Z,355.2380
2022-08-04T00:38:12.862Z,357.9510
2022-08-04T00:38:23.956Z,354.8540
2022-08-04T00:38:35.016Z,357.1720
2022-08-04T00:38:47.361Z,354.0880
2022-08-04T00:38:58.454Z,356.0090
2022-08-04T00:39:09.582Z,355.2380
2022-08-04T00:39:20.740Z,356.3960
2022-08-04T00:39:31.926Z,353.7060
2022-08-04T00:39:43.201Z,353.3250
2022-08-04T00:39:54.289Z,355.6230
2022-08-04T00:40:05.364Z,357.1720
2022-08-04T00:40:16.740Z,354.8540
2022-08-04T00:40:29.046Z,354.8540
2022-08-04T00:40:40.281Z,353.3250
2022-08-04T00:40:51.321Z,353.3250
2022-08-04T00:41:02.391Z,356.3960
2022-08-04T00:41:13.456Z,354.0880
2022-08-04T00:41:24.569Z,355.6230
2022-08-04T00:41:35.641Z,354.0880
2022-08-04T00:41:56.430Z,348.0780
2022-08-04T00:42:08.427Z,335.2740
2022-08-04T00:42:19.638Z,340.1400
2022-08-04T00:42:30.703Z,345.1490
2022-08-04T00:42:58.159Z,346.6070
2022-08-04T00:42:59.600Z,338.7350
2022-08-04T00:43:10.849Z,335.9600
2022-08-04T00:43:21.906Z,341.2010
2022-08-04T00:43:33.021Z,342.6260
2022-08-04T00:43:44.084Z,344.4240
2022-08-04T00:43:55.160Z,346.2410
2022-08-04T00:44:06.228Z,344.0630
2022-08-04T00:44:24.000Z,349.9340
2022-08-04T00:44:34.271Z,340.1400
2022-08-04T00:44:45.339Z,341.2010
2022-08-04T00:44:56.379Z,345.1490
2022-08-04T00:45:07.457Z,346.9740
2022-08-04T00:45:18.521Z,344.4240
2022-08-04T00:45:29.590Z,348.4480
2022-08-04T00:46:15.004Z,329.8810
2022-08-04T00:46:15.178Z,339.0850
2022-08-04T00:46:20.493Z,323.3780
2022-08-04T00:46:31.560Z,327.2480
2022-08-04T00:46:42.618Z,331.2130
2022-08-04T00:46:53.794Z,335.9600
2022-08-04T00:47:04.876Z,334.5900
2022-08-04T00:47:15.956Z,335.9600
2022-08-04T00:47:27.132Z,341.5560
2022-08-04T00:47:38.196Z,340.4930
2022-08-04T00:47:49.269Z,342.9840
2022-08-04T00:48:00.310Z,343.7030
2022-08-04T00:48:11.354Z,346.2410
2022-08-04T00:48:22.425Z,346.2410
2022-08-04T00:48:33.506Z,344.0630
2022-08-04T00:48:44.585Z,342.9840
2022-08-04T00:48:55.920Z,347.3410
2022-08-04T00:49:06.985Z,347.3410
2022-08-04T00:49:18.024Z,348.0780
2022-08-04T00:49:29.247Z,347.3410
2022-08-04T00:49:40.313Z,347.3410
2022-08-04T00:49:51.362Z,348.4480
2022-08-04T00:50:02.448Z,349.1890
2022-08-04T00:50:13.490Z,349.5610
2022-08-04T00:50:24.580Z,350.6820
2022-08-04T00:50:35.643Z,350.6820
2022-08-04T00:50:46.711Z,351.4330
2022-08-04T00:50:57.897Z,352.1880
2022-08-04T00:51:08.951Z,351.0570
2022-08-04T00:51:20.012Z,350.6820
2022-08-04T00:51:31.205Z,353.3250
2022-08-04T00:51:42.267Z,351.0570
2022-08-04T00:52:30.684Z,351.0570
2022-08-04T00:52:30.906Z,342.9840
2022-08-04T00:52:31.349Z,332.5550
2022-08-04T00:52:44.198Z,326.2720
2022-08-04T00:52:55.267Z,331.2130
2022-08-04T00:53:06.347Z,336.3050
2022-08-04T00:53:17.411Z,339.0850
2022-08-04T00:53:28.467Z,340.4930
2022-08-04T00:53:39.567Z,342.9840
2022-08-04T00:53:56.527Z,332.2190
2022-08-04T00:54:07.601Z,336.9960
2022-08-04T00:54:18.953Z,339.4360
2022-08-04T00:54:30.320Z,338.7350
2022-08-04T00:54:41.366Z,341.2010
2022-08-04T00:54:52.433Z,339.4360
2022-08-04T00:55:06.873Z,345.1490
2022-08-04T00:55:20.480Z,333.2310
2022-08-04T00:55:31.666Z,337.3420
2022-08-04T00:55:42.732Z,341.2010
2022-08-04T00:55:53.798Z,341.2010
2022-08-04T00:56:04.850Z,343.3430
2022-08-04T00:56:15.899Z,344.7860
2022-08-04T00:56:26.963Z,345.5120
2022-08-04T00:56:38.022Z,344.4240
2022-08-04T00:56:49.228Z,346.2410
2022-08-04T00:57:00.281Z,346.9740
2022-08-04T00:57:28.577Z,345.8760
2022-08-04T00:57:33.674Z,339.7870
2022-08-04T00:57:45.287Z,328.5590
2022-08-04T00:57:56.353Z,333.5700
2022-08-04T00:58:07.409Z,336.6500
2022-08-04T00:58:18.492Z,340.4930
2022-08-04T00:58:29.570Z,338.7350
2022-08-04T00:58:40.674Z,343.7030
2022-08-04T00:58:51.876Z,342.9840
2022-08-04T00:59:02.984Z,342.6260
2022-08-04T00:59:14.054Z,343.3430
2022-08-04T00:59:25.100Z,345.1490
2022-08-04T00:59:36.164Z,349.5610
2022-08-04T00:59:47.219Z,347.7090
2022-08-04T00:59:58.294Z,348.0780
2022-08-04T01:00:09.340Z,349.9340
2022-08-04T01:00:20.419Z,348.8180
2022-08-04T01:00:31.500Z,348.4480
2022-08-04T01:00:42.582Z,351.8100
2022-08-04T01:00:53.801Z,349.5610
2022-08-04T01:01:05.164Z,351.4330
2022-08-04T01:01:16.315Z,351.8100
2022-08-04T01:01:27.477Z,351.4330
2022-08-04T01:01:38.644Z,351.0570
2022-08-04T01:01:49.833Z,351.8100
2022-08-04T01:02:00.934Z,354.4710
2022-08-04T01:02:12.013Z,352.9450
2022-08-04T01:02:23.225Z,353.3250
2022-08-04T01:02:34.296Z,352.1880
2022-08-04T01:02:45.348Z,355.2380
2022-08-04T01:02:56.624Z,355.2380
2022-08-04T01:03:07.686Z,355.2380
2022-08-04T01:03:19.006Z,356.0090
2022-08-04T01:03:30.065Z,352.9450
2022-08-04T01:03:41.180Z,354.8540
2022-08-04T01:03:52.233Z,354.0880
2022-08-04T01:04:03.345Z,354.4710
2022-08-04T01:04:14.409Z,355.6230
2022-08-04T01:04:31.387Z,348.4480
2022-08-04T01:04:42.481Z,345.8760
2022-08-04T01:04:53.565Z,349.5610
2022-08-04T01:05:04.645Z,352.9450
2022-08-04T01:05:15.714Z,350.6820
2022-08-04T01:05:26.909Z,352.9450
2022-08-04T01:05:38.402Z,351.8100
2022-08-04T01:05:49.677Z,352.5660
2022-08-04T01:06:01.093Z,351.8100
2022-08-04T01:06:12.156Z,353.7060
2022-08-04T01:06:23.222Z,356.0090
2022-08-04T01:06:34.282Z,354.0880
2022-08-04T01:06:45.348Z,356.3960
2022-08-04T01:07:02.323Z,346.9740
2022-08-04T01:07:13.386Z,348.8180
2022-08-04T01:07:24.445Z,346.9740
2022-08-04T01:07:35.508Z,349.9340
2022-08-04T01:07:46.559Z,352.1880
2022-08-04T01:07:57.593Z,351.8100
2022-08-04T01:08:08.664Z,354.4710
2022-08-04T01:08:19.724Z,353.7060
2022-08-04T01:08:30.934Z,356.0090
2022-08-04T01:08:42.031Z,355.6230
2022-08-04T01:08:53.093Z,356.3960
2022-08-04T01:09:04.172Z,354.8540
2022-08-04T01:09:21.081Z,354.4710
2022-08-04T01:09:32.377Z,348.0780
2022-08-04T01:09:43.425Z,346.2410
2022-08-04T01:09:54.487Z,350.3080
2022-08-04T01:10:05.559Z,352.5660
2022-08-04T01:10:17.683Z,351.8100
2022-08-04T01:10:28.936Z,354.4710
2022-08-04T01:10:40.006Z,351.4330
2022-08-04T01:10:51.079Z,354.0880
2022-08-04T01:11:02.132Z,354.4710
2022-08-04T01:11:13.196Z,357.9510
2022-08-04T01:11:24.274Z,357.5610
2022-08-04T01:11:57.063Z,354.8540
2022-08-04T01:11:57.165Z,349.5610
2022-08-04T01:12:09.261Z,338.0370
2022-08-04T01:12:20.337Z,342.9840
2022-08-04T01:12:31.409Z,348.0780
2022-08-04T01:12:42.457Z,347.7090
2022-08-04T01:12:53.516Z,351.8100
2022-08-04T01:13:07.801Z,351.8100
2022-08-04T01:13:21.562Z,340.1400
2022-08-04T01:13:32.626Z,342.9840
2022-08-04T01:13:43.770Z,347.3410
2022-08-04T01:13:54.842Z,346.2410
2022-08-04T01:14:05.957Z,348.0780
2022-08-04T01:14:17.021Z,350.3080
2022-08-04T01:14:28.089Z,349.9340
2022-08-04T01:14:39.160Z,352.5660
2022-08-04T01:14:50.228Z,354.0880
2022-08-04T01:15:01.300Z,355.6230
2022-08-04T01:15:12.358Z,355.6230
2022-08-04T01:15:23.433Z,354.8540
2022-08-04T01:15:59.785Z,346.6070
2022-08-04T01:16:00.014Z,355.6230
2022-08-04T01:16:08.409Z,336.6500
2022-08-04T01:16:19.482Z,343.7030
2022-08-04T01:16:30.547Z,345.1490
2022-08-04T01:16:41.618Z,345.1490
2022-08-04T01:16:53.034Z,348.8180
2022-08-04T01:17:04.104Z,347.7090
2022-08-04T01:17:15.200Z,352.5660
2022-08-04T01:17:26.259Z,353.3250
2022-08-04T01:17:37.330Z,352.9450
2022-08-04T01:17:48.368Z,352.5660
2022-08-04T01:17:59.443Z,354.8540
2022-08-04T01:18:10.517Z,355.6230
2022-08-04T01:18:21.561Z,353.7060
2022-08-04T01:18:32.603Z,357.1720
2022-08-04T01:18:43.674Z,356.7830
2022-08-04T01:18:54.769Z,360.7050
2022-08-04T01:19:05.817Z,356.3960
2022-08-04T01:19:16.907Z,359.5200
2022-08-04T01:19:29.129Z,357.1720
2022-08-04T01:19:40.969Z,357.5610
2022-08-04T01:19:52.049Z,354.4710
2022-08-04T01:20:03.142Z,355.6230
2022-08-04T01:20:14.217Z,360.3090
2022-08-04T01:20:25.285Z,357.1720
2022-08-04T01:20:36.331Z,358.3420
2022-08-04T01:20:48.621Z,355.6230
2022-08-04T01:20:59.698Z,357.9510
2022-08-04T01:21:10.752Z,356.3960
2022-08-04T01:21:21.829Z,361.8990
2022-08-04T01:21:32.859Z,360.7050
2022-08-04T01:21:43.929Z,361.1020
2022-08-04T01:21:55.820Z,360.7050
2022-08-04T01:22:06.880Z,359.9140
2022-08-04T01:22:17.938Z,361.5000
2022-08-04T01:22:29.154Z,362.6990
2022-08-04T01:22:40.211Z,363.5030
2022-08-04T01:22:51.258Z,360.3090
2022-08-04T01:23:02.415Z,363.5030
2022-08-04T01:23:13.836Z,363.5030
2022-08-04T01:23:24.900Z,363.9060
2022-08-04T01:23:35.976Z,363.1000
2022-08-04T01:23:47.045Z,361.5000
2022-08-04T01:23:58.167Z,361.8990
2022-08-04T01:24:09.228Z,360.7050
2022-08-04T01:24:21.850Z,363.5030
2022-08-04T01:24:34.596Z,357.5610
2022-08-04T01:24:46.322Z,360.3090
2022-08-04T01:25:02.329Z,353.3250
2022-08-04T01:25:16.055Z,350.3080
2022-08-04T01:25:27.886Z,351.4330
2022-08-04T01:25:42.285Z,347.7090
2022-08-04T01:25:53.356Z,349.5610
2022-08-04T01:26:43.042Z,348.8180
2022-08-04T01:26:43.042Z,332.2190
2022-08-04T01:26:43.411Z,339.7870
2022-08-04T01:26:58.696Z,327.2480
2022-08-04T01:27:09.968Z,332.5550
2022-08-04T01:27:21.332Z,336.6500
2022-08-04T01:27:34.094Z,334.2490
2022-08-04T01:27:48.885Z,333.9090
2022-08-04T01:27:59.956Z,339.4360
2022-08-04T01:28:11.034Z,341.9120
2022-08-04T01:28:24.541Z,339.4360
2022-08-04T01:28:41.119Z,341.5560
2022-08-04T01:28:53.955Z,331.8830
2022-08-04T01:29:06.216Z,335.2740
2022-08-04T01:29:19.275Z,334.2490
2022-08-04T01:29:46.727Z,337.3420
2022-08-04T01:29:48.951Z,328.5590
2022-08-04T01:30:00.244Z,333.9090
2022-08-04T01:30:11.315Z,335.2740
2022-08-04T01:30:22.373Z,339.4360
2022-08-04T01:30:33.436Z,341.5560
2022-08-04T01:30:44.515Z,340.8460
2022-08-04T01:30:56.021Z,345.8760
2022-08-04T01:31:07.079Z,343.7030
2022-08-04T01:31:24.062Z,335.6170
2022-08-04T01:31:35.139Z,338.7350
2022-08-04T01:31:46.227Z,340.1400
2022-08-04T01:31:57.385Z,343.7030
2022-08-04T01:32:08.457Z,342.9840
2022-08-04T01:32:19.527Z,347.7090
2022-08-04T01:32:31.966Z,345.1490
2022-08-04T01:32:43.028Z,347.3410
2022-08-04T01:32:54.099Z,346.6070
2022-08-04T01:33:05.177Z,347.3410
2022-08-04T01:33:16.247Z,350.3080
2022-08-04T01:33:27.288Z,348.8180
2022-08-04T01:34:03.113Z,351.8100
2022-08-04T01:34:04.051Z,341.2010
2022-08-04T01:34:12.297Z,332.5550
2022-08-04T01:34:23.377Z,338.0370
2022-08-04T01:34:34.439Z,338.0370
2022-08-04T01:34:45.485Z,342.9840
2022-08-04T01:34:56.556Z,344.7860
2022-08-04T01:35:07.607Z,344.7860
2022-08-04T01:35:22.157Z,348.0780
2022-08-04T01:35:46.961Z,341.2010
2022-08-04T01:35:52.724Z,332.5550
2022-08-04T01:36:03.808Z,335.9600
2022-08-04T01:36:15.047Z,336.9960
2022-08-04T01:36:26.220Z,341.9120
2022-08-04T01:36:37.363Z,344.0630
2022-08-04T01:36:50.075Z,342.6260
2022-08-04T01:37:02.009Z,341.2010
2022-08-04T01:37:13.129Z,345.5120
2022-08-04T01:37:24.187Z,345.8760
2022-08-04T01:37:35.257Z,345.8760
2022-08-04T01:37:46.336Z,344.7860
2022-08-04T01:37:57.397Z,348.0780
2022-08-04T01:38:21.174Z,348.0780
2022-08-04T01:38:25.416Z,339.4360
2022-08-04T01:38:36.486Z,342.9840
2022-08-04T01:38:47.586Z,346.2410
2022-08-04T01:38:58.758Z,344.4240
2022-08-04T01:39:09.848Z,348.4480
2022-08-04T01:39:21.117Z,348.8180
2022-08-04T01:39:32.448Z,347.7090
2022-08-04T01:39:43.541Z,349.9340
2022-08-04T01:39:54.617Z,352.1880
2022-08-04T01:40:05.663Z,349.9340
2022-08-04T01:40:16.929Z,349.9340
2022-08-04T01:40:27.976Z,350.3080
2022-08-04T01:40:39.048Z,351.0570
2022-08-04T01:40:50.108Z,350.3080
2022-08-04T01:41:01.169Z,354.8540
2022-08-04T01:41:12.253Z,354.0880
2022-08-04T01:41:32.250Z,352.9450
2022-08-04T01:41:40.297Z,345.1490
2022-08-04T01:41:58.332Z,335.2740
2022-08-04T01:42:09.950Z,336.3050
2022-08-04T01:42:31.989Z,343.3430
2022-08-04T01:42:37.939Z,335.2740
2022-08-04T01:42:49.008Z,336.3050
2022-08-04T01:43:00.083Z,340.8460
2022-08-04T01:43:11.167Z,342.9840
2022-08-04T01:43:22.247Z,343.7030
2022-08-04T01:43:33.308Z,345.1490
2022-08-04T01:43:44.365Z,349.5610
2022-08-04T01:43:55.408Z,348.8180
2022-08-04T01:44:06.484Z,348.0780
2022-08-04T01:44:17.551Z,351.8100
2022-08-04T01:44:28.665Z,352.1880
2022-08-04T01:44:39.729Z,351.8100
2022-08-04T01:44:50.803Z,351.4330
2022-08-04T01:45:01.871Z,353.3250
2022-08-04T01:45:12.963Z,352.5660
2022-08-04T01:45:24.027Z,355.6230
2022-08-04T01:45:35.130Z,354.8540
2022-08-04T01:45:46.188Z,356.7830
2022-08-04T01:45:57.259Z,356.0090
2022-08-04T01:46:08.317Z,355.6230
2022-08-04T01:46:19.389Z,357.1720
2022-08-04T01:46:30.457Z,357.1720
2022-08-04T01:46:41.497Z,357.1720
2022-08-04T01:46:52.556Z,356.3960
2022-08-04T01:47:03.618Z,359.5200
2022-08-04T01:47:14.687Z,357.5610
2022-08-04T01:47:26.267Z,356.0090
2022-08-04T01:47:37.338Z,356.7830
2022-08-04T01:47:48.408Z,361.1020
2022-08-04T01:47:59.469Z,360.3090
2022-08-04T01:48:10.537Z,357.9510
2022-08-04T01:48:21.596Z,361.8990
2022-08-04T01:48:34.742Z,356.3960
2022-08-04T01:48:45.804Z,357.5610
2022-08-04T01:48:57.468Z,355.6230
2022-08-04T01:49:08.534Z,356.7830
2022-08-04T01:49:21.145Z,356.3960
2022-08-04T01:49:40.648Z,356.3960
2022-08-04T01:49:49.198Z,351.8100
2022-08-04T01:50:00.258Z,349.5610
2022-08-04T01:50:11.325Z,351.8100
2022-08-04T01:50:22.396Z,352.9450
2022-08-04T01:50:33.457Z,353.7060
2022-08-04T01:50:44.528Z,354.4710
2022-08-04T01:50:55.604Z,354.8540
2022-08-04T01:51:06.671Z,355.6230
2022-08-04T01:51:17.728Z,358.7340
2022-08-04T01:51:28.776Z,357.5610
2022-08-04T01:51:39.849Z,357.1720
2022-08-04T01:51:50.928Z,357.5610
2022-08-04T01:52:02.121Z,361.5000
2022-08-04T01:52:13.178Z,357.9510
2022-08-04T01:52:24.250Z,359.5200
2022-08-04T01:52:35.306Z,359.9140
2022-08-04T01:52:50.691Z,360.3090
2022-08-04T01:53:02.244Z,351.0570
2022-08-04T01:53:13.316Z,354.0880
2022-08-04T01:53:24.367Z,356.7830
2022-08-04T01:53:35.438Z,355.6230
2022-08-04T01:53:46.506Z,357.1720
2022-08-04T01:53:57.588Z,356.3960
2022-08-04T01:54:08.648Z,357.9510
2022-08-04T01:54:19.839Z,357.9510
2022-08-04T01:54:31.195Z,357.9510
2022-08-04T01:54:42.249Z,357.9510
2022-08-04T01:54:53.311Z,358.7340
2022-08-04T01:55:04.362Z,361.8990
2022-08-04T01:55:15.436Z,359.9140
2022-08-04T01:55:54.168Z,350.6820
2022-08-04T01:55:54.407Z,361.8990
2022-08-04T01:56:00.392Z,341.9120
2022-08-04T01:56:11.465Z,344.4240
2022-08-04T01:56:22.525Z,350.6820
2022-08-04T01:56:33.728Z,348.8180
2022-08-04T01:56:44.805Z,353.3250
2022-08-04T01:56:55.866Z,353.3250
2022-08-04T01:57:37.081Z,354.0880
2022-08-04T01:57:38.903Z,346.6070
2022-08-04T01:57:40.958Z,337.3420
2022-08-04T01:57:52.040Z,339.7870
2022-08-04T01:58:03.105Z,344.4240
2022-08-04T01:58:14.154Z,345.8760
2022-08-04T01:58:25.211Z,346.9740
2022-08-04T01:58:36.275Z,348.0780
2022-08-04T01:58:47.314Z,349.9340
2022-08-04T01:58:58.385Z,352.1880
2022-08-04T01:59:09.458Z,351.4330
2022-08-04T01:59:20.640Z,352.5660
2022-08-04T01:59:31.701Z,354.8540
2022-08-04T01:59:42.780Z,354.0880
2022-08-04T01:59:53.847Z,356.0090
2022-08-04T02:00:07.430Z,351.0570
2022-08-04T02:00:18.497Z,351.0570
2022-08-04T02:00:29.554Z,352.9450
2022-08-04T02:00:40.608Z,354.0880
2022-08-04T02:00:56.254Z,354.4710
2022-08-04T02:01:08.505Z,344.4240
2022-08-04T02:01:20.189Z,348.8180
2022-08-04T02:01:31.391Z,348.0780
2022-08-04T02:01:42.611Z,350.3080
2022-08-04T02:01:53.810Z,352.9450
2022-08-04T02:02:05.056Z,354.0880
2022-08-04T02:02:16.858Z,353.3250
2022-08-04T02:02:28.777Z,353.3250
2022-08-04T02:02:40.219Z,352.1880
2022-08-04T02:02:51.434Z,351.8100
2022-08-04T02:03:02.682Z,353.3250
2022-08-04T02:03:13.735Z,353.7060
2022-08-04T02:04:18.276Z,356.7830
2022-08-04T02:04:18.584Z,338.7350
2022-08-04T02:04:19.910Z,345.5120
2022-08-04T02:04:21.128Z,331.5470
2022-08-04T02:04:32.690Z,326.2720
2022-08-04T02:04:43.789Z,330.5450
2022-08-04T02:04:54.851Z,335.9600
2022-08-04T02:05:05.912Z,339.0850
2022-08-04T02:05:16.989Z,340.4930
2022-08-04T02:06:02.349Z,334.9320
2022-08-04T02:06:03.143Z,328.8890
2022-08-04T02:06:03.431Z,344.7860
2022-08-04T02:06:15.378Z,327.9030
2022-08-04T02:06:26.448Z,331.2130
2022-08-04T02:06:37.510Z,334.5900
2022-08-04T02:06:48.569Z,337.6890
2022-08-04T02:06:59.639Z,340.1400
2022-08-04T02:07:10.724Z,342.2680
2022-08-04T02:07:27.677Z,334.2490
2022-08-04T02:07:38.739Z,335.9600
2022-08-04T02:07:49.828Z,339.4360
2022-08-04T02:08:00.906Z,341.5560
2022-08-04T02:08:11.988Z,343.3430
2022-08-04T02:08:23.060Z,342.9840
2022-08-04T02:08:38.499Z,339.4360
2022-08-04T02:08:49.565Z,340.1400
2022-08-04T02:09:00.650Z,342.2680
2022-08-04T02:09:11.717Z,345.8760
2022-08-04T02:09:22.768Z,345.8760
2022-08-04T02:09:34.050Z,346.2410
2022-08-04T02:09:54.544Z,338.3860
2022-08-04T02:10:06.542Z,330.8790
2022-08-04T02:10:17.739Z,337.3420
2022-08-04T02:10:28.788Z,339.0850
2022-08-04T02:10:39.870Z,340.8460
2022-08-04T02:10:50.940Z,342.2680
2022-08-04T02:11:02.012Z,344.4240
2022-08-04T02:11:13.078Z,345.8760
2022-08-04T02:11:24.146Z,349.5610
2022-08-04T02:11:35.225Z,348.4480
2022-08-04T02:11:46.277Z,348.0780
2022-08-04T02:11:57.350Z,351.4330
2022-08-04T02:12:16.268Z,351.0570
2022-08-04T02:12:25.388Z,341.5560
2022-08-04T02:12:36.446Z,344.4240
2022-08-04T02:12:47.508Z,345.1490
2022-08-04T02:12:58.548Z,345.1490
2022-08-04T02:13:09.618Z,346.9740
2022-08-04T02:13:20.679Z,348.4480
2022-08-04T02:13:31.748Z,351.0570
2022-08-04T02:13:42.804Z,350.3080
2022-08-04T02:13:53.858Z,352.9450
2022-08-04T02:14:04.928Z,350.6820
2022-08-04T02:14:15.978Z,354.4710
2022-08-04T02:14:27.058Z,353.3250
2022-08-04T02:14:38.140Z,354.8540
2022-08-04T02:14:49.180Z,353.3250
2022-08-04T02:15:00.275Z,356.3960
2022-08-04T02:15:11.337Z,355.6230
2022-08-04T02:15:22.394Z,357.1720
2022-08-04T02:15:33.458Z,356.0090
2022-08-04T02:15:44.528Z,356.7830
2022-08-04T02:15:55.594Z,360.3090
2022-08-04T02:16:06.648Z,358.3420
2022-08-04T02:16:17.726Z,355.2380
2022-08-04T02:16:28.795Z,359.5200
2022-08-04T02:16:39.857Z,359.1260
2022-08-04T02:16:52.505Z,358.7340
2022-08-04T02:17:04.018Z,354.0880
2022-08-04T02:17:15.079Z,355.2380
2022-08-04T02:17:26.128Z,356.3960
2022-08-04T02:17:37.193Z,358.7340
2022-08-04T02:17:48.258Z,359.5200
2022-08-04T02:17:59.327Z,359.1260
2022-08-04T02:18:11.842Z,356.7830